Forside
METAR-TAF:

METAR-TAF

Lufthavne :

Ängelholm-Helsingborg Lufthavn

Helsingborg, Sverige

Breddekreds: 56-17-46N, længdekreds: 012-50-50E, højde: 21 m

Aktuelle vejr

Denne rapport blev lavet for 1 time og 1 minutter siden, kl. 18:50 UTC
Vind 8 kt fra østsydøst
Temperatur 0°C
Fugtighed 100%
Tryk 996 hPa
Sigt: 4700 m
Overskyet i en højde af 200 ft
let sne

METAR: ESTA 031850Z 11008KT 4700 -SN OVC002 00/M00 Q0996

Tid: 20:51 (19:51 UTC)

Vejrudsigter

Denne rapport blev lavet for 2 timer og 26 minutter siden, kl. 17:25 UTC
Foreløbig gælder fra 03 på 18 UTC til 03 på 21 UTC
Vind 8 kt fra øst
Sigt: 1200 m
Brudte skyer i en højde af 200 ft
sne
Midlertidig
fra 03 på 18 UTC til 03 på 21 UTC
Sigt: 5000 m
Brudte skyer i en højde af 800 ft
let sne, regn

TAF: ESTA 031725Z 0318/0321 10008KT 1200 SN BKN002 TEMPO 0318/0321 5000 -SNRA BKN008

Vejrobservationer og prognoser fra mere end 4000 lufthavne (METAR og TAF).

De gule og røde prikker repræsenterer de meteorologiske stationer.

Flyt musen over at se navnet på stationen.

Så klik over at se vejr observationer og prognoser.

At skifte det kort: Klik på de grønne knapper med et sort kors for at zoome ind; på den grønne knap med en bindestreg for at zoome ud; eller på de grønne pile for tilstødende kort.


METAR-TAF: